sensor_id;sensor_type;location;lat;lon;timestamp;P1;durP1;ratioP1;P2;durP2;ratioP2
24857;SDS011;12935;50.782;6.074;2023-02-28T00:00:24;20.70;;;3.17;;
24857;SDS011;12935;50.782;6.074;2023-02-28T00:02:50;38.23;;;5.50;;
24857;SDS011;12935;50.782;6.074;2023-02-28T00:05:17;23.75;;;3.55;;
24857;SDS011;12935;50.782;6.074;2023-02-28T00:07:44;18.73;;;3.17;;
24857;SDS011;12935;50.782;6.074;2023-02-28T00:10:11;25.38;;;3.70;;
24857;SDS011;12935;50.782;6.074;2023-02-28T00:12:39;10.65;;;1.85;;
24857;SDS011;12935;50.782;6.074;2023-02-28T00:15:05;14.57;;;2.33;;
24857;SDS011;12935;50.782;6.074;2023-02-28T00:17:32;25.92;;;3.42;;
24857;SDS011;12935;50.782;6.074;2023-02-28T00:19:57;19.33;;;3.27;;
24857;SDS011;12935;50.782;6.074;2023-02-28T00:22:34;22.42;;;3.33;;
24857;SDS011;12935;50.782;6.074;2023-02-28T00:25:01;19.90;;;2.97;;
24857;SDS011;12935;50.782;6.074;2023-02-28T00:27:27;21.27;;;3.13;;
24857;SDS011;12935;50.782;6.074;2023-02-28T00:29:52;16.97;;;2.77;;
24857;SDS011;12935;50.782;6.074;2023-02-28T00:32:19;19.63;;;5.05;;
24857;SDS011;12935;50.782;6.074;2023-02-28T00:34:47;19.13;;;3.00;;
24857;SDS011;12935;50.782;6.074;2023-02-28T00:37:13;27.20;;;4.22;;
24857;SDS011;12935;50.782;6.074;2023-02-28T00:39:38;28.33;;;4.13;;
24857;SDS011;12935;50.782;6.074;2023-02-28T00:42:04;22.30;;;3.27;;
24857;SDS011;12935;50.782;6.074;2023-02-28T00:44:30;17.70;;;2.65;;
24857;SDS011;12935;50.782;6.074;2023-02-28T00:46:56;25.47;;;3.80;;
24857;SDS011;12935;50.782;6.074;2023-02-28T00:49:23;24.75;;;3.50;;
24857;SDS011;12935;50.782;6.074;2023-02-28T00:51:48;18.23;;;2.80;;
24857;SDS011;12935;50.782;6.074;2023-02-28T00:54:14;26.23;;;3.97;;
24857;SDS011;12935;50.782;6.074;2023-02-28T00:56:40;23.23;;;3.45;;
24857;SDS011;12935;50.782;6.074;2023-02-28T00:59:05;18.67;;;2.77;;
24857;SDS011;12935;50.782;6.074;2023-02-28T01:01:31;16.60;;;2.73;;
24857;SDS011;12935;50.782;6.074;2023-02-28T01:03:57;16.33;;;2.77;;
24857;SDS011;12935;50.782;6.074;2023-02-28T01:06:22;18.23;;;2.93;;
24857;SDS011;12935;50.782;6.074;2023-02-28T01:08:48;16.50;;;2.63;;
24857;SDS011;12935;50.782;6.074;2023-02-28T01:11:14;18.52;;;3.05;;
24857;SDS011;12935;50.782;6.074;2023-02-28T01:13:41;26.17;;;3.75;;
24857;SDS011;12935;50.782;6.074;2023-02-28T01:16:07;17.95;;;2.70;;
24857;SDS011;12935;50.782;6.074;2023-02-28T01:18:33;24.60;;;3.50;;
24857;SDS011;12935;50.782;6.074;2023-02-28T01:21:02;22.33;;;3.37;;
24857;SDS011;12935;50.782;6.074;2023-02-28T01:23:29;18.80;;;2.90;;
24857;SDS011;12935;50.782;6.074;2023-02-28T01:25:54;15.40;;;2.43;;
24857;SDS011;12935;50.782;6.074;2023-02-28T01:28:20;29.93;;;3.57;;
24857;SDS011;12935;50.782;6.074;2023-02-28T01:30:49;19.97;;;2.90;;
24857;SDS011;12935;50.782;6.074;2023-02-28T01:33:15;18.40;;;2.95;;
24857;SDS011;12935;50.782;6.074;2023-02-28T01:35:41;21.87;;;3.20;;
24857;SDS011;12935;50.782;6.074;2023-02-28T01:38:06;25.60;;;4.10;;
24857;SDS011;12935;50.782;6.074;2023-02-28T01:40:31;19.57;;;3.17;;
24857;SDS011;12935;50.782;6.074;2023-02-28T01:42:57;20.37;;;3.00;;
24857;SDS011;12935;50.782;6.074;2023-02-28T01:45:27;26.83;;;4.30;;
24857;SDS011;12935;50.782;6.074;2023-02-28T01:47:55;16.42;;;2.45;;
24857;SDS011;12935;50.782;6.074;2023-02-28T01:50:27;23.30;;;3.40;;
24857;SDS011;12935;50.782;6.074;2023-02-28T01:52:55;18.35;;;2.78;;
24857;SDS011;12935;50.782;6.074;2023-02-28T01:55:24;19.55;;;2.90;;
24857;SDS011;12935;50.782;6.074;2023-02-28T01:57:56;16.65;;;2.65;;
24857;SDS011;12935;50.782;6.074;2023-02-28T02:00:25;28.63;;;4.18;;
24857;SDS011;12935;50.782;6.074;2023-02-28T02:02:53;29.25;;;4.30;;
24857;SDS011;12935;50.782;6.074;2023-02-28T02:05:24;24.80;;;3.67;;
24857;SDS011;12935;50.782;6.074;2023-02-28T02:07:52;23.42;;;3.42;;
24857;SDS011;12935;50.782;6.074;2023-02-28T02:10:27;28.00;;;4.00;;
24857;SDS011;12935;50.782;6.074;2023-02-28T02:22:08;18.00;;;2.75;;
24857;SDS011;12935;50.782;6.074;2023-02-28T02:36:12;19.33;;;2.88;;
24857;SDS011;12935;50.782;6.074;2023-02-28T02:38:54;19.83;;;3.35;;
24857;SDS011;12935;50.782;6.074;2023-02-28T02:44:13;12.25;;;1.98;;
24857;SDS011;12935;50.782;6.074;2023-02-28T02:46:45;19.35;;;3.05;;
24857;SDS011;12935;50.782;6.074;2023-02-28T02:49:15;15.55;;;2.45;;
24857;SDS011;12935;50.782;6.074;2023-02-28T02:51:47;21.50;;;3.17;;
24857;SDS011;12935;50.782;6.074;2023-02-28T02:54:19;33.17;;;4.85;;
24857;SDS011;12935;50.782;6.074;2023-02-28T02:56:48;28.40;;;4.05;;
24857;SDS011;12935;50.782;6.074;2023-02-28T02:59:16;12.90;;;2.05;;
24857;SDS011;12935;50.782;6.074;2023-02-28T03:01:46;16.83;;;2.47;;
24857;SDS011;12935;50.782;6.074;2023-02-28T03:04:19;17.73;;;3.05;;
24857;SDS011;12935;50.782;6.074;2023-02-28T03:06:47;24.05;;;3.63;;
24857;SDS011;12935;50.782;6.074;2023-02-28T03:09:13;31.30;;;4.63;;
24857;SDS011;12935;50.782;6.074;2023-02-28T03:11:38;21.37;;;3.07;;
24857;SDS011;12935;50.782;6.074;2023-02-28T03:25:09;20.17;;;2.97;;
24857;SDS011;12935;50.782;6.074;2023-02-28T03:28:02;18.55;;;2.95;;
24857;SDS011;12935;50.782;6.074;2023-02-28T03:33:59;26.23;;;3.83;;
24857;SDS011;12935;50.782;6.074;2023-02-28T03:36:43;25.60;;;3.67;;
24857;SDS011;12935;50.782;6.074;2023-02-28T03:39:20;30.98;;;5.05;;
24857;SDS011;12935;50.782;6.074;2023-02-28T03:41:52;20.17;;;3.15;;
24857;SDS011;12935;50.782;6.074;2023-02-28T03:44:21;22.70;;;3.45;;
24857;SDS011;12935;50.782;6.074;2023-02-28T03:46:56;29.50;;;3.95;;
24857;SDS011;12935;50.782;6.074;2023-02-28T03:49:33;33.83;;;4.95;;
24857;SDS011;12935;50.782;6.074;2023-02-28T03:52:05;11.50;;;1.92;;
24857;SDS011;12935;50.782;6.074;2023-02-28T03:54:33;20.10;;;3.03;;
24857;SDS011;12935;50.782;6.074;2023-02-28T03:57:04;20.42;;;3.33;;
24857;SDS011;12935;50.782;6.074;2023-02-28T03:59:35;36.50;;;5.70;;
24857;SDS011;12935;50.782;6.074;2023-02-28T04:02:09;23.98;;;3.60;;
24857;SDS011;12935;50.782;6.074;2023-02-28T04:04:35;13.97;;;2.47;;
24857;SDS011;12935;50.782;6.074;2023-02-28T04:07:02;16.43;;;2.60;;
24857;SDS011;12935;50.782;6.074;2023-02-28T04:09:30;30.23;;;5.07;;
24857;SDS011;12935;50.782;6.074;2023-02-28T04:11:56;17.53;;;2.70;;
24857;SDS011;12935;50.782;6.074;2023-02-28T04:14:21;21.20;;;3.90;;
24857;SDS011;12935;50.782;6.074;2023-02-28T04:16:47;34.60;;;5.03;;
24857;SDS011;12935;50.782;6.074;2023-02-28T04:19:13;19.17;;;2.97;;
24857;SDS011;12935;50.782;6.074;2023-02-28T04:21:46;18.30;;;2.90;;
24857;SDS011;12935;50.782;6.074;2023-02-28T04:24:17;25.70;;;4.00;;
24857;SDS011;12935;50.782;6.074;2023-02-28T04:26:47;28.30;;;4.35;;
24857;SDS011;12935;50.782;6.074;2023-02-28T04:29:19;17.60;;;2.58;;
24857;SDS011;12935;50.782;6.074;2023-02-28T04:31:47;24.13;;;4.78;;
24857;SDS011;12935;50.782;6.074;2023-02-28T04:34:12;14.90;;;2.27;;
24857;SDS011;12935;50.782;6.074;2023-02-28T04:36:38;22.47;;;3.40;;
24857;SDS011;12935;50.782;6.074;2023-02-28T04:39:04;20.50;;;3.17;;
24857;SDS011;12935;50.782;6.074;2023-02-28T04:41:29;23.53;;;3.77;;
24857;SDS011;12935;50.782;6.074;2023-02-28T04:43:55;19.87;;;2.97;;
24857;SDS011;12935;50.782;6.074;2023-02-28T04:46:21;14.07;;;2.27;;
24857;SDS011;12935;50.782;6.074;2023-02-28T04:48:46;18.77;;;4.00;;
24857;SDS011;12935;50.782;6.074;2023-02-28T04:51:13;15.67;;;2.57;;
24857;SDS011;12935;50.782;6.074;2023-02-28T04:53:39;11.57;;;2.00;;
24857;SDS011;12935;50.782;6.074;2023-02-28T04:56:10;24.85;;;4.03;;
24857;SDS011;12935;50.782;6.074;2023-02-28T04:58:40;20.83;;;3.08;;
24857;SDS011;12935;50.782;6.074;2023-02-28T05:03:44;16.23;;;2.47;;
24857;SDS011;12935;50.782;6.074;2023-02-28T05:06:11;13.60;;;3.20;;
24857;SDS011;12935;50.782;6.074;2023-02-28T05:08:37;17.83;;;2.80;;
24857;SDS011;12935;50.782;6.074;2023-02-28T05:11:04;21.40;;;3.30;;
24857;SDS011;12935;50.782;6.074;2023-02-28T05:13:32;20.27;;;2.88;;
24857;SDS011;12935;50.782;6.074;2023-02-28T05:15:57;29.97;;;4.10;;
24857;SDS011;12935;50.782;6.074;2023-02-28T05:18:22;22.87;;;3.53;;
24857;SDS011;12935;50.782;6.074;2023-02-28T05:20:48;19.70;;;3.20;;
24857;SDS011;12935;50.782;6.074;2023-02-28T05:23:14;18.03;;;2.97;;
24857;SDS011;12935;50.782;6.074;2023-02-28T05:25:41;16.05;;;2.50;;
24857;SDS011;12935;50.782;6.074;2023-02-28T05:28:09;26.30;;;4.00;;
24857;SDS011;12935;50.782;6.074;2023-02-28T05:30:34;21.92;;;3.25;;
24857;SDS011;12935;50.782;6.074;2023-02-28T05:33:00;19.33;;;3.10;;
24857;SDS011;12935;50.782;6.074;2023-02-28T05:35:26;23.47;;;3.47;;
24857;SDS011;12935;50.782;6.074;2023-02-28T05:37:51;22.70;;;3.23;;
24857;SDS011;12935;50.782;6.074;2023-02-28T05:40:17;19.37;;;2.90;;
24857;SDS011;12935;50.782;6.074;2023-02-28T05:42:45;15.15;;;2.35;;
24857;SDS011;12935;50.782;6.074;2023-02-28T05:45:11;26.02;;;4.10;;
24857;SDS011;12935;50.782;6.074;2023-02-28T05:47:37;22.50;;;3.40;;
24857;SDS011;12935;50.782;6.074;2023-02-28T05:50:03;17.30;;;2.70;;
24857;SDS011;12935;50.782;6.074;2023-02-28T05:52:29;14.70;;;3.05;;
24857;SDS011;12935;50.782;6.074;2023-02-28T05:54:55;12.17;;;1.87;;
24857;SDS011;12935;50.782;6.074;2023-02-28T05:57:21;12.25;;;2.10;;
24857;SDS011;12935;50.782;6.074;2023-02-28T05:59:47;11.88;;;1.88;;
24857;SDS011;12935;50.782;6.074;2023-02-28T06:02:14;19.93;;;3.23;;
24857;SDS011;12935;50.782;6.074;2023-02-28T06:04:40;24.25;;;3.35;;
24857;SDS011;12935;50.782;6.074;2023-02-28T06:07:07;19.10;;;3.00;;
24857;SDS011;12935;50.782;6.074;2023-02-28T06:09:33;24.38;;;5.55;;
24857;SDS011;12935;50.782;6.074;2023-02-28T06:11:59;20.40;;;3.13;;
24857;SDS011;12935;50.782;6.074;2023-02-28T06:14:25;13.00;;;2.20;;
24857;SDS011;12935;50.782;6.074;2023-02-28T06:16:51;19.03;;;2.90;;
24857;SDS011;12935;50.782;6.074;2023-02-28T06:19:17;16.93;;;2.77;;
24857;SDS011;12935;50.782;6.074;2023-02-28T06:21:42;30.73;;;4.50;;
24857;SDS011;12935;50.782;6.074;2023-02-28T06:24:09;32.37;;;4.90;;
24857;SDS011;12935;50.782;6.074;2023-02-28T06:26:34;20.80;;;3.00;;
24857;SDS011;12935;50.782;6.074;2023-02-28T06:29:00;42.67;;;3.83;;
24857;SDS011;12935;50.782;6.074;2023-02-28T06:31:26;15.97;;;3.13;;
24857;SDS011;12935;50.782;6.074;2023-02-28T06:33:53;18.83;;;2.90;;
24857;SDS011;12935;50.782;6.074;2023-02-28T06:36:19;25.07;;;4.40;;
24857;SDS011;12935;50.782;6.074;2023-02-28T06:38:44;21.37;;;4.13;;
24857;SDS011;12935;50.782;6.074;2023-02-28T06:41:10;28.63;;;4.17;;
24857;SDS011;12935;50.782;6.074;2023-02-28T06:43:37;17.97;;;2.73;;
24857;SDS011;12935;50.782;6.074;2023-02-28T06:46:07;19.33;;;4.35;;
24857;SDS011;12935;50.782;6.074;2023-02-28T06:48:34;16.90;;;2.65;;
24857;SDS011;12935;50.782;6.074;2023-02-28T06:53:29;17.30;;;2.50;;
24857;SDS011;12935;50.782;6.074;2023-02-28T06:55:55;24.02;;;3.65;;
24857;SDS011;12935;50.782;6.074;2023-02-28T06:58:21;20.83;;;3.07;;
24857;SDS011;12935;50.782;6.074;2023-02-28T07:00:49;25.90;;;3.70;;
24857;SDS011;12935;50.782;6.074;2023-02-28T07:03:16;15.45;;;2.55;;
24857;SDS011;12935;50.782;6.074;2023-02-28T07:05:43;17.00;;;3.50;;
24857;SDS011;12935;50.782;6.074;2023-02-28T07:08:09;12.40;;;2.05;;
24857;SDS011;12935;50.782;6.074;2023-02-28T07:10:37;16.43;;;2.70;;
24857;SDS011;12935;50.782;6.074;2023-02-28T07:13:03;23.27;;;3.70;;
24857;SDS011;12935;50.782;6.074;2023-02-28T07:15:29;17.15;;;2.53;;
24857;SDS011;12935;50.782;6.074;2023-02-28T07:17:54;25.83;;;3.87;;
24857;SDS011;12935;50.782;6.074;2023-02-28T07:20:21;37.15;;;5.28;;
24857;SDS011;12935;50.782;6.074;2023-02-28T07:22:46;17.37;;;3.10;;
24857;SDS011;12935;50.782;6.074;2023-02-28T07:25:16;15.07;;;2.95;;
24857;SDS011;12935;50.782;6.074;2023-02-28T07:27:42;24.53;;;3.63;;
24857;SDS011;12935;50.782;6.074;2023-02-28T07:30:07;20.30;;;3.20;;
24857;SDS011;12935;50.782;6.074;2023-02-28T07:32:33;11.50;;;1.90;;
24857;SDS011;12935;50.782;6.074;2023-02-28T07:34:58;23.53;;;3.50;;
24857;SDS011;12935;50.782;6.074;2023-02-28T07:37:24;33.03;;;4.77;;
24857;SDS011;12935;50.782;6.074;2023-02-28T07:39:49;28.13;;;4.10;;
24857;SDS011;12935;50.782;6.074;2023-02-28T07:42:14;15.83;;;3.17;;
24857;SDS011;12935;50.782;6.074;2023-02-28T07:44:39;25.27;;;3.80;;
24857;SDS011;12935;50.782;6.074;2023-02-28T07:47:06;18.53;;;2.80;;
24857;SDS011;12935;50.782;6.074;2023-02-28T07:49:32;48.70;;;7.00;;
24857;SDS011;12935;50.782;6.074;2023-02-28T07:51:59;22.40;;;3.35;;
24857;SDS011;12935;50.782;6.074;2023-02-28T07:54:24;14.90;;;2.37;;
24857;SDS011;12935;50.782;6.074;2023-02-28T07:56:49;36.83;;;5.33;;
24857;SDS011;12935;50.782;6.074;2023-02-28T07:59:15;14.73;;;2.50;;
24857;SDS011;12935;50.782;6.074;2023-02-28T08:01:40;21.47;;;3.73;;
24857;SDS011;12935;50.782;6.074;2023-02-28T08:04:05;12.13;;;2.03;;
24857;SDS011;12935;50.782;6.074;2023-02-28T08:06:31;18.13;;;2.63;;
24857;SDS011;12935;50.782;6.074;2023-02-28T08:08:56;27.03;;;3.93;;
24857;SDS011;12935;50.782;6.074;2023-02-28T08:11:22;25.50;;;3.73;;
24857;SDS011;12935;50.782;6.074;2023-02-28T08:13:48;10.83;;;1.83;;
24857;SDS011;12935;50.782;6.074;2023-02-28T08:16:13;22.97;;;3.50;;
24857;SDS011;12935;50.782;6.074;2023-02-28T08:18:46;15.68;;;2.50;;
24857;SDS011;12935;50.782;6.074;2023-02-28T08:21:13;14.60;;;2.35;;
24857;SDS011;12935;50.782;6.074;2023-02-28T08:23:38;31.83;;;7.10;;
24857;SDS011;12935;50.782;6.074;2023-02-28T08:26:04;14.17;;;2.70;;
24857;SDS011;12935;50.782;6.074;2023-02-28T08:28:29;14.63;;;3.20;;
24857;SDS011;12935;50.782;6.074;2023-02-28T08:30:55;26.35;;;3.83;;
24857;SDS011;12935;50.782;6.074;2023-02-28T08:33:21;23.70;;;3.83;;
24857;SDS011;12935;50.782;6.074;2023-02-28T08:35:47;20.40;;;3.45;;
24857;SDS011;12935;50.782;6.074;2023-02-28T08:38:13;21.57;;;3.37;;
24857;SDS011;12935;50.782;6.074;2023-02-28T08:40:38;26.03;;;4.47;;
24857;SDS011;12935;50.782;6.074;2023-02-28T08:43:04;20.50;;;3.43;;
24857;SDS011;12935;50.782;6.074;2023-02-28T08:45:29;19.77;;;3.17;;
24857;SDS011;12935;50.782;6.074;2023-02-28T08:47:54;18.70;;;3.13;;
24857;SDS011;12935;50.782;6.074;2023-02-28T08:50:20;17.33;;;2.70;;
24857;SDS011;12935;50.782;6.074;2023-02-28T08:52:46;20.20;;;3.40;;
24857;SDS011;12935;50.782;6.074;2023-02-28T08:55:12;20.95;;;3.25;;
24857;SDS011;12935;50.782;6.074;2023-02-28T08:57:37;23.83;;;3.70;;
24857;SDS011;12935;50.782;6.074;2023-02-28T09:00:03;35.43;;;5.43;;
24857;SDS011;12935;50.782;6.074;2023-02-28T09:02:29;18.65;;;3.03;;
24857;SDS011;12935;50.782;6.074;2023-02-28T09:04:55;14.45;;;2.45;;
24857;SDS011;12935;50.782;6.074;2023-02-28T09:07:20;20.57;;;3.27;;
24857;SDS011;12935;50.782;6.074;2023-02-28T09:09:46;25.17;;;3.80;;
24857;SDS011;12935;50.782;6.074;2023-02-28T09:12:26;16.13;;;2.72;;
24857;SDS011;12935;50.782;6.074;2023-02-28T09:14:52;13.00;;;2.22;;
24857;SDS011;12935;50.782;6.074;2023-02-28T09:17:18;19.35;;;2.88;;
24857;SDS011;12935;50.782;6.074;2023-02-28T09:19:44;21.20;;;3.40;;
24857;SDS011;12935;50.782;6.074;2023-02-28T09:22:10;30.50;;;4.53;;
24857;SDS011;12935;50.782;6.074;2023-02-28T09:24:36;15.32;;;2.65;;
24857;SDS011;12935;50.782;6.074;2023-02-28T09:27:02;15.20;;;2.58;;
24857;SDS011;12935;50.782;6.074;2023-02-28T09:29:29;39.45;;;5.90;;
24857;SDS011;12935;50.782;6.074;2023-02-28T09:31:55;19.13;;;3.03;;
24857;SDS011;12935;50.782;6.074;2023-02-28T09:34:23;19.55;;;3.20;;
24857;SDS011;12935;50.782;6.074;2023-02-28T09:36:49;30.15;;;4.40;;
24857;SDS011;12935;50.782;6.074;2023-02-28T09:39:19;29.65;;;4.70;;
24857;SDS011;12935;50.782;6.074;2023-02-28T09:41:47;28.15;;;4.18;;
24857;SDS011;12935;50.782;6.074;2023-02-28T09:44:17;18.27;;;3.10;;
24857;SDS011;12935;50.782;6.074;2023-02-28T09:46:51;23.33;;;3.58;;
24857;SDS011;12935;50.782;6.074;2023-02-28T09:49:25;26.27;;;4.25;;
24857;SDS011;12935;50.782;6.074;2023-02-28T09:51:59;23.73;;;5.00;;
24857;SDS011;12935;50.782;6.074;2023-02-28T09:54:28;25.70;;;4.20;;
24857;SDS011;12935;50.782;6.074;2023-02-28T09:57:07;18.73;;;3.22;;
24857;SDS011;12935;50.782;6.074;2023-02-28T09:59:44;30.73;;;4.85;;
24857;SDS011;12935;50.782;6.074;2023-02-28T10:07:39;21.83;;;4.07;;
24857;SDS011;12935;50.782;6.074;2023-02-28T10:10:21;24.27;;;4.10;;
24857;SDS011;12935;50.782;6.074;2023-02-28T10:12:52;18.75;;;3.45;;
24857;SDS011;12935;50.782;6.074;2023-02-28T10:15:21;24.35;;;3.92;;
24857;SDS011;12935;50.782;6.074;2023-02-28T10:17:50;26.63;;;4.32;;
24857;SDS011;12935;50.782;6.074;2023-02-28T10:20:20;20.95;;;3.80;;
24857;SDS011;12935;50.782;6.074;2023-02-28T10:25:47;26.70;;;4.57;;
24857;SDS011;12935;50.782;6.074;2023-02-28T10:28:19;19.80;;;3.83;;
24857;SDS011;12935;50.782;6.074;2023-02-28T10:30:48;19.37;;;3.60;;
24857;SDS011;12935;50.782;6.074;2023-02-28T10:33:17;16.80;;;3.28;;
24857;SDS011;12935;50.782;6.074;2023-02-28T10:35:47;16.75;;;3.45;;
24857;SDS011;12935;50.782;6.074;2023-02-28T10:38:15;14.07;;;2.97;;
24857;SDS011;12935;50.782;6.074;2023-02-28T10:40:43;22.73;;;4.03;;
24857;SDS011;12935;50.782;6.074;2023-02-28T10:45:52;22.73;;;4.28;;
24857;SDS011;12935;50.782;6.074;2023-02-28T10:53:28;12.75;;;2.85;;
24857;SDS011;12935;50.782;6.074;2023-02-28T10:55:58;41.65;;;6.88;;
24857;SDS011;12935;50.782;6.074;2023-02-28T11:01:21;24.63;;;5.32;;
24857;SDS011;12935;50.782;6.074;2023-02-28T11:03:47;18.40;;;3.80;;
24857;SDS011;12935;50.782;6.074;2023-02-28T11:06:15;22.17;;;4.07;;
24857;SDS011;12935;50.782;6.074;2023-02-28T11:08:43;24.38;;;4.68;;
24857;SDS011;12935;50.782;6.074;2023-02-28T11:11:13;20.98;;;4.05;;
24857;SDS011;12935;50.782;6.074;2023-02-28T11:13:39;24.90;;;4.70;;
24857;SDS011;12935;50.782;6.074;2023-02-28T11:16:06;35.67;;;5.87;;
24857;SDS011;12935;50.782;6.074;2023-02-28T11:18:50;26.88;;;5.55;;
24857;SDS011;12935;50.782;6.074;2023-02-28T11:21:21;17.88;;;4.15;;
24857;SDS011;12935;50.782;6.074;2023-02-28T11:23:56;45.97;;;5.40;;
24857;SDS011;12935;50.782;6.074;2023-02-28T11:26:39;20.67;;;5.32;;
24857;SDS011;12935;50.782;6.074;2023-02-28T11:29:20;32.28;;;6.35;;
24857;SDS011;12935;50.782;6.074;2023-02-28T11:34:30;18.52;;;4.57;;
24857;SDS011;12935;50.782;6.074;2023-02-28T11:36:57;19.08;;;4.85;;
24857;SDS011;12935;50.782;6.074;2023-02-28T11:39:24;35.35;;;7.90;;
24857;SDS011;12935;50.782;6.074;2023-02-28T11:50:16;27.08;;;5.90;;
24857;SDS011;12935;50.782;6.074;2023-02-28T11:56:25;15.40;;;5.13;;
24857;SDS011;12935;50.782;6.074;2023-02-28T12:01:32;23.23;;;6.03;;
24857;SDS011;12935;50.782;6.074;2023-02-28T12:28:26;17.33;;;5.83;;
24857;SDS011;12935;50.782;6.074;2023-02-28T12:30:58;25.60;;;6.50;;
24857;SDS011;12935;50.782;6.074;2023-02-28T12:33:31;19.10;;;6.78;;
24857;SDS011;12935;50.782;6.074;2023-02-28T12:36:01;24.53;;;7.50;;
24857;SDS011;12935;50.782;6.074;2023-02-28T12:38:40;20.42;;;6.75;;
24857;SDS011;12935;50.782;6.074;2023-02-28T12:44:01;33.50;;;8.17;;
24857;SDS011;12935;50.782;6.074;2023-02-28T12:46:44;22.73;;;6.90;;
24857;SDS011;12935;50.782;6.074;2023-02-28T12:49:23;20.10;;;6.93;;
24857;SDS011;12935;50.782;6.074;2023-02-28T12:51:53;27.77;;;7.30;;
24857;SDS011;12935;50.782;6.074;2023-02-28T12:54:26;31.02;;;7.85;;
24857;SDS011;12935;50.782;6.074;2023-02-28T12:57:09;25.83;;;7.20;;
24857;SDS011;12935;50.782;6.074;2023-02-28T13:10:05;22.90;;;8.03;;
24857;SDS011;12935;50.782;6.074;2023-02-28T13:12:32;22.37;;;8.63;;
24857;SDS011;12935;50.782;6.074;2023-02-28T13:15:07;35.03;;;10.97;;
24857;SDS011;12935;50.782;6.074;2023-02-28T13:17:40;32.70;;;10.10;;
24857;SDS011;12935;50.782;6.074;2023-02-28T13:20:31;28.77;;;10.30;;
24857;SDS011;12935;50.782;6.074;2023-02-28T13:22:58;23.43;;;8.57;;
24857;SDS011;12935;50.782;6.074;2023-02-28T13:28:10;30.57;;;9.87;;
24857;SDS011;12935;50.782;6.074;2023-02-28T13:33:31;20.17;;;9.20;;
24857;SDS011;12935;50.782;6.074;2023-02-28T13:36:11;23.93;;;10.73;;
24857;SDS011;12935;50.782;6.074;2023-02-28T13:38:57;31.33;;;11.40;;
24857;SDS011;12935;50.782;6.074;2023-02-28T13:52:17;22.47;;;13.20;;
24857;SDS011;12935;50.782;6.074;2023-02-28T13:57:33;22.23;;;12.73;;
24857;SDS011;12935;50.782;6.074;2023-02-28T14:00:16;23.57;;;13.57;;
24857;SDS011;12935;50.782;6.074;2023-02-28T14:05:30;28.30;;;14.80;;
24857;SDS011;12935;50.782;6.074;2023-02-28T14:07:59;27.10;;;14.70;;
24857;SDS011;12935;50.782;6.074;2023-02-28T14:10:50;29.50;;;14.63;;
24857;SDS011;12935;50.782;6.074;2023-02-28T14:13:44;31.67;;;16.73;;
24857;SDS011;12935;50.782;6.074;2023-02-28T14:16:21;39.13;;;14.87;;
24857;SDS011;12935;50.782;6.074;2023-02-28T14:21:39;26.87;;;15.20;;
24857;SDS011;12935;50.782;6.074;2023-02-28T14:32:40;39.43;;;15.33;;
24857;SDS011;12935;50.782;6.074;2023-02-28T14:37:41;22.37;;;14.47;;
24857;SDS011;12935;50.782;6.074;2023-02-28T14:40:14;26.50;;;15.60;;
24857;SDS011;12935;50.782;6.074;2023-02-28T14:42:46;37.43;;;16.30;;
24857;SDS011;12935;50.782;6.074;2023-02-28T14:45:20;30.90;;;13.53;;
24857;SDS011;12935;50.782;6.074;2023-02-28T14:47:46;23.93;;;12.93;;
24857;SDS011;12935;50.782;6.074;2023-02-28T14:50:18;40.00;;;11.60;;
24857;SDS011;12935;50.782;6.074;2023-02-28T14:52:46;31.30;;;11.70;;
24857;SDS011;12935;50.782;6.074;2023-02-28T14:55:15;29.57;;;10.60;;
24857;SDS011;12935;50.782;6.074;2023-02-28T14:57:50;25.27;;;7.60;;
24857;SDS011;12935;50.782;6.074;2023-02-28T15:00:28;35.25;;;8.68;;
24857;SDS011;12935;50.782;6.074;2023-02-28T15:02:56;44.42;;;8.90;;
24857;SDS011;12935;50.782;6.074;2023-02-28T15:05:27;21.53;;;5.97;;
24857;SDS011;12935;50.782;6.074;2023-02-28T15:08:02;23.20;;;5.95;;
24857;SDS011;12935;50.782;6.074;2023-02-28T15:10:40;24.83;;;5.68;;
24857;SDS011;12935;50.782;6.074;2023-02-28T15:13:13;16.70;;;4.47;;
24857;SDS011;12935;50.782;6.074;2023-02-28T15:15:45;27.30;;;5.10;;
24857;SDS011;12935;50.782;6.074;2023-02-28T15:18:26;30.55;;;5.53;;
24857;SDS011;12935;50.782;6.074;2023-02-28T15:20:52;30.08;;;5.55;;
24857;SDS011;12935;50.782;6.074;2023-02-28T15:23:19;21.15;;;4.57;;
24857;SDS011;12935;50.782;6.074;2023-02-28T15:25:46;28.52;;;5.95;;
24857;SDS011;12935;50.782;6.074;2023-02-28T15:28:14;25.90;;;4.87;;
24857;SDS011;12935;50.782;6.074;2023-02-28T15:31:02;20.15;;;4.13;;
24857;SDS011;12935;50.782;6.074;2023-02-28T15:33:51;23.60;;;4.57;;
24857;SDS011;12935;50.782;6.074;2023-02-28T15:36:21;19.45;;;3.75;;
24857;SDS011;12935;50.782;6.074;2023-02-28T15:38:52;47.47;;;6.93;;
24857;SDS011;12935;50.782;6.074;2023-02-28T15:41:29;46.63;;;6.80;;
24857;SDS011;12935;50.782;6.074;2023-02-28T15:46:58;36.20;;;5.90;;
24857;SDS011;12935;50.782;6.074;2023-02-28T15:49:39;36.50;;;5.90;;
24857;SDS011;12935;50.782;6.074;2023-02-28T15:52:15;28.35;;;4.90;;
24857;SDS011;12935;50.782;6.074;2023-02-28T15:54:43;26.13;;;4.43;;
24857;SDS011;12935;50.782;6.074;2023-02-28T15:57:13;23.20;;;4.28;;
24857;SDS011;12935;50.782;6.074;2023-02-28T15:59:44;19.65;;;3.63;;
24857;SDS011;12935;50.782;6.074;2023-02-28T16:02:17;16.63;;;3.38;;
24857;SDS011;12935;50.782;6.074;2023-02-28T16:04:59;21.15;;;4.53;;
24857;SDS011;12935;50.782;6.074;2023-02-28T16:07:37;24.83;;;5.30;;
24857;SDS011;12935;50.782;6.074;2023-02-28T16:10:04;21.45;;;3.80;;
24857;SDS011;12935;50.782;6.074;2023-02-28T16:12:32;22.52;;;4.15;;
24857;SDS011;12935;50.782;6.074;2023-02-28T16:15:00;35.40;;;6.35;;
24857;SDS011;12935;50.782;6.074;2023-02-28T16:17:28;31.90;;;4.57;;
24857;SDS011;12935;50.782;6.074;2023-02-28T16:19:56;28.27;;;7.05;;
24857;SDS011;12935;50.782;6.074;2023-02-28T16:22:21;16.20;;;3.13;;
24857;SDS011;12935;50.782;6.074;2023-02-28T16:24:47;28.27;;;5.20;;
24857;SDS011;12935;50.782;6.074;2023-02-28T16:27:28;22.90;;;4.27;;
24857;SDS011;12935;50.782;6.074;2023-02-28T16:29:56;29.52;;;5.20;;
24857;SDS011;12935;50.782;6.074;2023-02-28T16:32:25;14.17;;;3.33;;
24857;SDS011;12935;50.782;6.074;2023-02-28T16:34:51;23.02;;;4.53;;
24857;SDS011;12935;50.782;6.074;2023-02-28T16:37:17;19.50;;;3.60;;
24857;SDS011;12935;50.782;6.074;2023-02-28T16:39:43;26.30;;;5.32;;
24857;SDS011;12935;50.782;6.074;2023-02-28T16:42:15;22.02;;;5.00;;
24857;SDS011;12935;50.782;6.074;2023-02-28T16:44:51;19.10;;;4.10;;
24857;SDS011;12935;50.782;6.074;2023-02-28T16:47:18;17.10;;;3.10;;
24857;SDS011;12935;50.782;6.074;2023-02-28T16:49:44;25.80;;;4.47;;
24857;SDS011;12935;50.782;6.074;2023-02-28T16:52:10;28.17;;;4.90;;
24857;SDS011;12935;50.782;6.074;2023-02-28T16:54:37;20.77;;;3.67;;
24857;SDS011;12935;50.782;6.074;2023-02-28T16:57:04;39.92;;;6.15;;
24857;SDS011;12935;50.782;6.074;2023-02-28T16:59:30;47.55;;;7.07;;
24857;SDS011;12935;50.782;6.074;2023-02-28T17:01:57;15.63;;;3.00;;
24857;SDS011;12935;50.782;6.074;2023-02-28T17:04:26;17.02;;;3.92;;
24857;SDS011;12935;50.782;6.074;2023-02-28T17:06:52;25.60;;;4.50;;
24857;SDS011;12935;50.782;6.074;2023-02-28T17:09:19;27.03;;;4.70;;
24857;SDS011;12935;50.782;6.074;2023-02-28T17:11:45;20.10;;;4.25;;
24857;SDS011;12935;50.782;6.074;2023-02-28T17:14:12;28.20;;;4.78;;
24857;SDS011;12935;50.782;6.074;2023-02-28T17:16:38;21.77;;;5.13;;
24857;SDS011;12935;50.782;6.074;2023-02-28T17:19:05;42.05;;;6.35;;